X  Close Metar Aviation Weather Data     EBBR Brussels
Temperature
4°C Temperature
1°C Dewpoint
81% Humidity



Wind
19 KM/H
12 MPH
5 M/S
10 KTS



20°
NNE
Current Conditions

Partly Cloudy Partly Cloudy
Pressure 1026.92 (hPa) - 30.32 (inHg)
Visibility 6.2 (mile) - 10 (km)
Airport
Airport-code EBBR

Location: Brussels
Distance: 14 (km)

Metar:
EBBR 282220Z 02010KT 9999 FEW024 04/01 Q1027 NOSIG

Time: 03-28-2020 23:20 CET